sensor_id;sensor_type;location;lat;lon;timestamp;pressure;altitude;pressure_sealevel;temperature;humidity
54194;BME280;40102;50.906;6.972;2022-10-23T00:01:59;100906.69;;;13.52;94.42
54194;BME280;40102;50.906;6.972;2022-10-23T00:04:27;100903.13;;;13.52;94.81
54194;BME280;40102;50.906;6.972;2022-10-23T00:06:53;100902.09;;;13.54;95.19
54194;BME280;40102;50.906;6.972;2022-10-23T00:09:21;100910.50;;;13.63;94.65
54194;BME280;40102;50.906;6.972;2022-10-23T00:11:51;100900.72;;;13.61;93.96
54194;BME280;40102;50.906;6.972;2022-10-23T00:14:18;100894.06;;;13.67;94.37
54194;BME280;40102;50.906;6.972;2022-10-23T00:16:44;100898.78;;;13.64;93.48
54194;BME280;40102;50.906;6.972;2022-10-23T00:19:12;100897.94;;;13.63;94.04
54194;BME280;40102;50.906;6.972;2022-10-23T00:21:38;100893.63;;;13.60;93.76
54194;BME280;40102;50.906;6.972;2022-10-23T00:24:04;100887.38;;;13.60;94.76
54194;BME280;40102;50.906;6.972;2022-10-23T00:26:30;100883.44;;;13.66;94.02
54194;BME280;40102;50.906;6.972;2022-10-23T00:28:55;100894.44;;;13.75;94.69
54194;BME280;40102;50.906;6.972;2022-10-23T00:31:22;100899.50;;;13.80;93.94
54194;BME280;40102;50.906;6.972;2022-10-23T00:33:48;100909.19;;;13.82;92.72
54194;BME280;40102;50.906;6.972;2022-10-23T00:36:15;100902.50;;;13.75;92.64
54194;BME280;40102;50.906;6.972;2022-10-23T00:38:42;100907.97;;;13.74;93.23
54194;BME280;40102;50.906;6.972;2022-10-23T00:41:09;100902.09;;;13.81;93.68
54194;BME280;40102;50.906;6.972;2022-10-23T00:43:53;100896.72;;;13.81;92.80
54194;BME280;40102;50.906;6.972;2022-10-23T00:46:19;100893.38;;;13.78;92.59
54194;BME280;40102;50.906;6.972;2022-10-23T00:48:44;100890.16;;;13.85;93.08
54194;BME280;40102;50.906;6.972;2022-10-23T00:51:09;100885.44;;;13.89;92.58
54194;BME280;40102;50.906;6.972;2022-10-23T00:53:35;100885.00;;;13.82;92.05
54194;BME280;40102;50.906;6.972;2022-10-23T00:56:01;100883.03;;;13.72;92.40
54194;BME280;40102;50.906;6.972;2022-10-23T00:58:27;100880.06;;;13.62;92.53
54194;BME280;40102;50.906;6.972;2022-10-23T01:00:55;100883.94;;;13.58;93.51
54194;BME280;40102;50.906;6.972;2022-10-23T01:03:25;100882.50;;;13.52;93.97
54194;BME280;40102;50.906;6.972;2022-10-23T01:06:33;100877.44;;;13.48;94.35
54194;BME280;40102;50.906;6.972;2022-10-23T01:09:14;100884.31;;;13.52;95.54
54194;BME280;40102;50.906;6.972;2022-10-23T01:11:49;100882.47;;;13.67;95.85
54194;BME280;40102;50.906;6.972;2022-10-23T01:14:28;100875.22;;;13.81;94.98
54194;BME280;40102;50.906;6.972;2022-10-23T01:17:07;100874.38;;;13.93;94.12
54194;BME280;40102;50.906;6.972;2022-10-23T01:22:32;100884.88;;;14.11;92.15
54194;BME280;40102;50.906;6.972;2022-10-23T01:27:47;100867.72;;;13.99;91.42
54194;BME280;40102;50.906;6.972;2022-10-23T01:30:15;100870.94;;;13.91;92.01
54194;BME280;40102;50.906;6.972;2022-10-23T01:32:50;100863.94;;;13.89;92.48
54194;BME280;40102;50.906;6.972;2022-10-23T01:35:35;100861.66;;;13.83;92.72
54194;BME280;40102;50.906;6.972;2022-10-23T01:38:26;100862.94;;;13.77;93.33
54194;BME280;40102;50.906;6.972;2022-10-23T01:41:01;100857.09;;;13.71;93.24
54194;BME280;40102;50.906;6.972;2022-10-23T01:43:36;100854.94;;;13.63;94.04
54194;BME280;40102;50.906;6.972;2022-10-23T01:46:08;100851.88;;;13.55;94.22
54194;BME280;40102;50.906;6.972;2022-10-23T01:48:36;100846.25;;;13.45;95.03
54194;BME280;40102;50.906;6.972;2022-10-23T01:51:07;100846.25;;;13.45;95.58
54194;BME280;40102;50.906;6.972;2022-10-23T01:53:38;100845.38;;;13.45;95.93
54194;BME280;40102;50.906;6.972;2022-10-23T01:56:09;100845.94;;;13.50;95.83
54194;BME280;40102;50.906;6.972;2022-10-23T01:58:37;100836.25;;;13.47;95.15
54194;BME280;40102;50.906;6.972;2022-10-23T02:01:05;100845.88;;;13.37;95.22
54194;BME280;40102;50.906;6.972;2022-10-23T02:03:32;100839.38;;;13.27;95.72
54194;BME280;40102;50.906;6.972;2022-10-23T02:05:59;100839.13;;;13.17;96.53
54194;BME280;40102;50.906;6.972;2022-10-23T02:08:25;100825.00;;;13.14;97.29
54194;BME280;40102;50.906;6.972;2022-10-23T02:11:07;100817.81;;;13.14;97.70
54194;BME280;40102;50.906;6.972;2022-10-23T02:13:41;100803.16;;;13.20;97.46
54194;BME280;40102;50.906;6.972;2022-10-23T02:21:16;100801.84;;;13.40;96.36
54194;BME280;40102;50.906;6.972;2022-10-23T02:23:55;100815.28;;;13.40;95.94
54194;BME280;40102;50.906;6.972;2022-10-23T02:26:25;100814.22;;;13.42;96.20
54194;BME280;40102;50.906;6.972;2022-10-23T02:28:57;100804.31;;;13.43;95.55
54194;BME280;40102;50.906;6.972;2022-10-23T02:31:24;100799.34;;;13.37;95.48
54194;BME280;40102;50.906;6.972;2022-10-23T02:33:50;100794.59;;;13.27;95.56
54194;BME280;40102;50.906;6.972;2022-10-23T02:36:17;100786.72;;;13.24;96.53
54194;BME280;40102;50.906;6.972;2022-10-23T02:38:44;100787.19;;;13.31;97.13
54194;BME280;40102;50.906;6.972;2022-10-23T02:46:29;100790.88;;;13.43;95.49
54194;BME280;40102;50.906;6.972;2022-10-23T02:49:13;100778.06;;;13.34;95.47
54194;BME280;40102;50.906;6.972;2022-10-23T02:54:49;100770.53;;;13.12;97.18
54194;BME280;40102;50.906;6.972;2022-10-23T02:57:46;100765.94;;;13.00;98.05
54194;BME280;40102;50.906;6.972;2022-10-23T03:00:19;100756.88;;;12.88;98.67
54194;BME280;40102;50.906;6.972;2022-10-23T03:05:19;100765.31;;;12.82;99.87
54194;BME280;40102;50.906;6.972;2022-10-23T03:07:46;100755.63;;;12.79;99.67
54194;BME280;40102;50.906;6.972;2022-10-23T03:10:12;100744.59;;;12.84;100.00
54194;BME280;40102;50.906;6.972;2022-10-23T03:12:38;100748.41;;;12.94;100.00
54194;BME280;40102;50.906;6.972;2022-10-23T03:15:05;100728.16;;;13.03;99.73
54194;BME280;40102;50.906;6.972;2022-10-23T03:17:31;100729.28;;;13.13;99.32
54194;BME280;40102;50.906;6.972;2022-10-23T03:19:56;100721.41;;;13.24;99.00
54194;BME280;40102;50.906;6.972;2022-10-23T03:22:22;100721.66;;;13.34;98.22
54194;BME280;40102;50.906;6.972;2022-10-23T03:24:50;100716.72;;;13.40;97.03
54194;BME280;40102;50.906;6.972;2022-10-23T03:27:16;100716.41;;;13.45;97.05
54194;BME280;40102;50.906;6.972;2022-10-23T03:29:41;100713.63;;;13.46;96.46
54194;BME280;40102;50.906;6.972;2022-10-23T03:32:07;100716.41;;;13.45;95.60
54194;BME280;40102;50.906;6.972;2022-10-23T03:34:32;100721.03;;;13.43;95.62
54194;BME280;40102;50.906;6.972;2022-10-23T03:36:58;100714.56;;;13.33;96.06
54194;BME280;40102;50.906;6.972;2022-10-23T03:39:24;100718.50;;;13.27;96.40
54194;BME280;40102;50.906;6.972;2022-10-23T03:41:49;100725.91;;;13.23;96.53
54194;BME280;40102;50.906;6.972;2022-10-23T03:44:15;100733.53;;;13.17;96.83
54194;BME280;40102;50.906;6.972;2022-10-23T03:46:40;100736.69;;;13.09;97.36
54194;BME280;40102;50.906;6.972;2022-10-23T03:49:06;100738.59;;;13.07;97.64
54194;BME280;40102;50.906;6.972;2022-10-23T03:51:32;100745.03;;;13.05;97.44
54194;BME280;40102;50.906;6.972;2022-10-23T03:53:57;100735.16;;;13.05;97.87
54194;BME280;40102;50.906;6.972;2022-10-23T03:56:23;100726.13;;;13.06;97.45
54194;BME280;40102;50.906;6.972;2022-10-23T03:58:48;100734.09;;;13.08;97.52
54194;BME280;40102;50.906;6.972;2022-10-23T04:01:17;100721.53;;;13.08;97.37
54194;BME280;40102;50.906;6.972;2022-10-23T04:03:42;100712.50;;;13.09;97.08
54194;BME280;40102;50.906;6.972;2022-10-23T04:06:08;100722.09;;;13.13;97.03
54194;BME280;40102;50.906;6.972;2022-10-23T04:08:33;100731.09;;;13.12;97.02
54194;BME280;40102;50.906;6.972;2022-10-23T04:10:59;100723.25;;;13.09;97.01
54194;BME280;40102;50.906;6.972;2022-10-23T04:13:24;100709.72;;;13.11;97.26
54194;BME280;40102;50.906;6.972;2022-10-23T04:15:50;100709.63;;;13.12;97.49
54194;BME280;40102;50.906;6.972;2022-10-23T04:18:17;100702.31;;;13.14;96.90
54194;BME280;40102;50.906;6.972;2022-10-23T04:20:43;100709.34;;;13.17;97.11
54194;BME280;40102;50.906;6.972;2022-10-23T04:23:08;100720.16;;;13.15;96.32
54194;BME280;40102;50.906;6.972;2022-10-23T04:25:34;100717.69;;;13.12;96.80
54194;BME280;40102;50.906;6.972;2022-10-23T04:28:02;100720.56;;;13.09;97.05
54194;BME280;40102;50.906;6.972;2022-10-23T04:30:27;100716.25;;;13.07;97.21
54194;BME280;40102;50.906;6.972;2022-10-23T04:32:52;100704.34;;;13.11;97.13
54194;BME280;40102;50.906;6.972;2022-10-23T04:35:18;100698.69;;;13.15;96.67
54194;BME280;40102;50.906;6.972;2022-10-23T04:37:44;100703.19;;;13.15;96.68
54194;BME280;40102;50.906;6.972;2022-10-23T04:40:10;100702.31;;;13.14;96.73
54194;BME280;40102;50.906;6.972;2022-10-23T04:42:36;100694.38;;;13.13;96.76
54194;BME280;40102;50.906;6.972;2022-10-23T04:45:01;100689.75;;;13.15;96.75
54194;BME280;40102;50.906;6.972;2022-10-23T04:47:26;100682.38;;;13.18;96.50
54194;BME280;40102;50.906;6.972;2022-10-23T04:49:52;100683.63;;;13.13;96.60
54194;BME280;40102;50.906;6.972;2022-10-23T04:52:17;100685.25;;;13.15;96.90
54194;BME280;40102;50.906;6.972;2022-10-23T04:54:42;100683.16;;;13.20;96.56
54194;BME280;40102;50.906;6.972;2022-10-23T04:57:08;100672.63;;;13.17;96.12
54194;BME280;40102;50.906;6.972;2022-10-23T04:59:33;100672.69;;;13.16;96.45
54194;BME280;40102;50.906;6.972;2022-10-23T05:01:59;100677.03;;;13.18;96.61
54194;BME280;40102;50.906;6.972;2022-10-23T05:04:24;100681.13;;;13.24;96.04
54194;BME280;40102;50.906;6.972;2022-10-23T05:06:50;100684.88;;;13.21;95.61
54194;BME280;40102;50.906;6.972;2022-10-23T05:09:18;100678.25;;;13.13;96.37
54194;BME280;40102;50.906;6.972;2022-10-23T05:11:43;100673.94;;;13.10;96.63
54194;BME280;40102;50.906;6.972;2022-10-23T05:14:09;100686.53;;;13.10;96.91
54194;BME280;40102;50.906;6.972;2022-10-23T05:16:54;100685.66;;;13.09;96.66
54194;BME280;40102;50.906;6.972;2022-10-23T05:19:25;100671.56;;;13.06;96.90
54194;BME280;40102;50.906;6.972;2022-10-23T05:21:51;100654.50;;;13.07;97.01
54194;BME280;40102;50.906;6.972;2022-10-23T05:24:21;100641.72;;;13.10;96.73
54194;BME280;40102;50.906;6.972;2022-10-23T05:26:47;100654.94;;;13.13;96.58
54194;BME280;40102;50.906;6.972;2022-10-23T05:29:12;100655.38;;;13.07;96.15
54194;BME280;40102;50.906;6.972;2022-10-23T05:31:38;100656.44;;;13.05;96.49
54194;BME280;40102;50.906;6.972;2022-10-23T05:34:04;100645.13;;;13.00;96.63
54194;BME280;40102;50.906;6.972;2022-10-23T05:36:30;100649.44;;;13.02;96.52
54194;BME280;40102;50.906;6.972;2022-10-23T05:38:56;100646.53;;;13.05;96.50
54194;BME280;40102;50.906;6.972;2022-10-23T05:41:22;100656.53;;;13.03;96.53
54194;BME280;40102;50.906;6.972;2022-10-23T05:43:48;100651.91;;;13.05;96.61
54194;BME280;40102;50.906;6.972;2022-10-23T05:46:13;100650.19;;;13.04;96.32
54194;BME280;40102;50.906;6.972;2022-10-23T05:48:38;100634.28;;;13.01;96.26
54194;BME280;40102;50.906;6.972;2022-10-23T05:51:05;100640.53;;;13.02;96.44
54194;BME280;40102;50.906;6.972;2022-10-23T05:53:31;100622.38;;;13.05;96.23
54194;BME280;40102;50.906;6.972;2022-10-23T05:56:03;100623.25;;;13.06;96.02
54194;BME280;40102;50.906;6.972;2022-10-23T05:58:29;100613.56;;;13.03;96.32
54194;BME280;40102;50.906;6.972;2022-10-23T06:00:54;100617.56;;;13.10;96.07
54194;BME280;40102;50.906;6.972;2022-10-23T06:03:19;100611.97;;;13.13;96.21
54194;BME280;40102;50.906;6.972;2022-10-23T06:05:49;100612.34;;;13.21;95.61
54194;BME280;40102;50.906;6.972;2022-10-23T06:08:14;100605.25;;;13.20;95.25
54194;BME280;40102;50.906;6.972;2022-10-23T06:10:40;100603.53;;;13.19;95.38
54194;BME280;40102;50.906;6.972;2022-10-23T06:13:05;100605.16;;;13.22;95.35
54194;BME280;40102;50.906;6.972;2022-10-23T06:15:31;100605.16;;;13.22;94.93
54194;BME280;40102;50.906;6.972;2022-10-23T06:18:00;100606.97;;;13.21;95.02
54194;BME280;40102;50.906;6.972;2022-10-23T06:20:25;100613.53;;;13.17;94.54
54194;BME280;40102;50.906;6.972;2022-10-23T06:22:51;100615.44;;;13.15;94.46
54194;BME280;40102;50.906;6.972;2022-10-23T06:25:17;100606.94;;;13.09;94.85
54194;BME280;40102;50.906;6.972;2022-10-23T06:27:42;100609.59;;;13.09;95.35
54194;BME280;40102;50.906;6.972;2022-10-23T06:30:08;100597.03;;;13.09;95.12
54194;BME280;40102;50.906;6.972;2022-10-23T06:32:33;100605.00;;;13.11;95.46
54194;BME280;40102;50.906;6.972;2022-10-23T06:34:59;100602.31;;;13.11;95.56
54194;BME280;40102;50.906;6.972;2022-10-23T06:37:24;100601.34;;;13.12;95.16
54194;BME280;40102;50.906;6.972;2022-10-23T06:39:49;100606.50;;;13.15;94.95
54194;BME280;40102;50.906;6.972;2022-10-23T06:42:15;100606.34;;;13.18;95.12
54194;BME280;40102;50.906;6.972;2022-10-23T06:44:40;100603.53;;;13.19;95.07
54194;BME280;40102;50.906;6.972;2022-10-23T06:47:05;100592.81;;;13.19;94.76
54194;BME280;40102;50.906;6.972;2022-10-23T06:49:31;100599.69;;;13.23;94.94
54194;BME280;40102;50.906;6.972;2022-10-23T06:51:56;100596.34;;;13.20;94.14
54194;BME280;40102;50.906;6.972;2022-10-23T06:54:22;100601.59;;;13.21;94.13
54194;BME280;40102;50.906;6.972;2022-10-23T06:56:47;100593.75;;;13.18;94.99
54194;BME280;40102;50.906;6.972;2022-10-23T06:59:14;100589.16;;;13.20;95.11
54194;BME280;40102;50.906;6.972;2022-10-23T07:01:39;100603.34;;;13.22;94.56
54194;BME280;40102;50.906;6.972;2022-10-23T07:04:05;100599.69;;;13.23;94.38
54194;BME280;40102;50.906;6.972;2022-10-23T07:06:30;100592.28;;;13.27;94.20
54194;BME280;40102;50.906;6.972;2022-10-23T07:08:56;100594.84;;;13.28;94.49
54194;BME280;40102;50.906;6.972;2022-10-23T07:11:23;100592.81;;;13.32;94.29
54194;BME280;40102;50.906;6.972;2022-10-23T07:13:49;100589.16;;;13.33;94.06
54194;BME280;40102;50.906;6.972;2022-10-23T07:16:19;100589.06;;;13.35;94.26
54194;BME280;40102;50.906;6.972;2022-10-23T07:18:48;100588.84;;;13.38;93.89
54194;BME280;40102;50.906;6.972;2022-10-23T07:21:13;100589.50;;;13.41;93.55
54194;BME280;40102;50.906;6.972;2022-10-23T07:23:39;100579.41;;;13.45;93.70
54194;BME280;40102;50.906;6.972;2022-10-23T07:26:09;100586.38;;;13.47;93.27
54194;BME280;40102;50.906;6.972;2022-10-23T07:28:36;100590.69;;;13.50;93.28
54194;BME280;40102;50.906;6.972;2022-10-23T07:31:02;100595.94;;;13.51;93.04
54194;BME280;40102;50.906;6.972;2022-10-23T07:33:28;100587.25;;;13.48;92.74
54194;BME280;40102;50.906;6.972;2022-10-23T07:35:53;100590.56;;;13.51;92.67
54194;BME280;40102;50.906;6.972;2022-10-23T07:38:18;100588.97;;;13.49;93.05
54194;BME280;40102;50.906;6.972;2022-10-23T07:40:44;100585.31;;;13.50;92.55
54194;BME280;40102;50.906;6.972;2022-10-23T07:43:10;100575.97;;;13.55;92.87
54194;BME280;40102;50.906;6.972;2022-10-23T07:45:35;100563.38;;;13.56;92.06
54194;BME280;40102;50.906;6.972;2022-10-23T07:48:01;100569.63;;;13.56;91.27
54194;BME280;40102;50.906;6.972;2022-10-23T07:50:26;100571.44;;;13.56;91.59
54194;BME280;40102;50.906;6.972;2022-10-23T07:52:52;100563.28;;;13.57;91.22
54194;BME280;40102;50.906;6.972;2022-10-23T07:55:17;100560.81;;;13.54;91.10
54194;BME280;40102;50.906;6.972;2022-10-23T07:57:42;100558.22;;;13.53;91.35
54194;BME280;40102;50.906;6.972;2022-10-23T08:00:09;100561.66;;;13.55;90.83
54194;BME280;40102;50.906;6.972;2022-10-23T08:02:35;100564.03;;;13.59;91.06
54194;BME280;40102;50.906;6.972;2022-10-23T08:05:01;100569.19;;;13.63;90.72
54194;BME280;40102;50.906;6.972;2022-10-23T08:07:26;100564.56;;;13.65;90.62
54194;BME280;40102;50.906;6.972;2022-10-23T08:09:51;100549.06;;;13.68;90.50
54194;BME280;40102;50.906;6.972;2022-10-23T08:12:17;100536.38;;;13.70;90.54
54194;BME280;40102;50.906;6.972;2022-10-23T08:14:45;100542.41;;;13.74;90.72
54194;BME280;40102;50.906;6.972;2022-10-23T08:17:10;100544.97;;;13.75;89.67
54194;BME280;40102;50.906;6.972;2022-10-23T08:19:36;100561.84;;;13.77;89.91
54194;BME280;40102;50.906;6.972;2022-10-23T08:22:01;100565.41;;;13.78;89.77
54194;BME280;40102;50.906;6.972;2022-10-23T08:24:28;100567.00;;;13.80;89.90
54194;BME280;40102;50.906;6.972;2022-10-23T08:26:53;100564.22;;;13.82;89.44
54194;BME280;40102;50.906;6.972;2022-10-23T08:29:19;100571.31;;;13.83;89.74
54194;BME280;40102;50.906;6.972;2022-10-23T08:31:44;100563.88;;;13.86;89.97
54194;BME280;40102;50.906;6.972;2022-10-23T08:34:10;100560.88;;;13.91;89.41
54194;BME280;40102;50.906;6.972;2022-10-23T08:36:38;100553.66;;;13.91;89.74
54194;BME280;40102;50.906;6.972;2022-10-23T08:39:04;100559.56;;;13.97;89.81
54194;BME280;40102;50.906;6.972;2022-10-23T08:41:36;100546.66;;;14.02;89.43
54194;BME280;40102;50.906;6.972;2022-10-23T08:46:36;100537.84;;;14.00;89.50
54194;BME280;40102;50.906;6.972;2022-10-23T08:54:59;100531.34;;;14.15;89.53
54194;BME280;40102;50.906;6.972;2022-10-23T08:57:31;100525.63;;;14.19;89.42
54194;BME280;40102;50.906;6.972;2022-10-23T09:00:12;100521.50;;;14.26;89.19
54194;BME280;40102;50.906;6.972;2022-10-23T09:02:45;100513.94;;;14.32;88.41
54194;BME280;40102;50.906;6.972;2022-10-23T09:05:20;100508.09;;;14.38;88.58
54194;BME280;40102;50.906;6.972;2022-10-23T09:19:15;100498.09;;;14.64;88.38
54194;BME280;40102;50.906;6.972;2022-10-23T09:21:41;100492.50;;;14.67;87.74
54194;BME280;40102;50.906;6.972;2022-10-23T09:24:14;100497.28;;;14.74;87.64
54194;BME280;40102;50.906;6.972;2022-10-23T09:26:43;100492.53;;;14.78;87.70
54194;BME280;40102;50.906;6.972;2022-10-23T09:29:32;100483.47;;;14.79;87.73
54194;BME280;40102;50.906;6.972;2022-10-23T09:32:02;100484.22;;;14.81;87.72
54194;BME280;40102;50.906;6.972;2022-10-23T09:34:31;100485.94;;;14.82;87.50
54194;BME280;40102;50.906;6.972;2022-10-23T09:36:59;100489.38;;;14.84;87.81
54194;BME280;40102;50.906;6.972;2022-10-23T09:39:35;100492.56;;;14.89;87.94
54194;BME280;40102;50.906;6.972;2022-10-23T09:42:14;100486.81;;;14.94;88.21
54194;BME280;40102;50.906;6.972;2022-10-23T09:44:49;100483.88;;;14.97;87.95
54194;BME280;40102;50.906;6.972;2022-10-23T09:47:19;100477.78;;;15.06;87.40
54194;BME280;40102;50.906;6.972;2022-10-23T09:49:53;100471.19;;;15.10;87.62
54194;BME280;40102;50.906;6.972;2022-10-23T09:52:27;100465.78;;;15.10;87.29
54194;BME280;40102;50.906;6.972;2022-10-23T09:55:13;100456.88;;;15.20;87.27
54194;BME280;40102;50.906;6.972;2022-10-23T09:57:43;100455.88;;;15.21;87.18
54194;BME280;40102;50.906;6.972;2022-10-23T10:00:18;100461.28;;;15.21;87.04
54194;BME280;40102;50.906;6.972;2022-10-23T10:02:59;100448.78;;;15.20;87.57
54194;BME280;40102;50.906;6.972;2022-10-23T10:05:27;100444.00;;;15.24;88.39
54194;BME280;40102;50.906;6.972;2022-10-23T10:08:04;100442.91;;;15.27;88.07
54194;BME280;40102;50.906;6.972;2022-10-23T10:10:37;100441.69;;;15.31;87.39
54194;BME280;40102;50.906;6.972;2022-10-23T10:16:01;100452.47;;;15.42;86.73
54194;BME280;40102;50.906;6.972;2022-10-23T10:18:34;100457.84;;;15.42;86.61
54194;BME280;40102;50.906;6.972;2022-10-23T10:23:50;100440.47;;;15.46;87.56
54194;BME280;40102;50.906;6.972;2022-10-23T10:29:16;100418.91;;;15.46;87.16
54194;BME280;40102;50.906;6.972;2022-10-23T10:32:15;100410.19;;;15.53;86.16
54194;BME280;40102;50.906;6.972;2022-10-23T10:34:54;100408.88;;;15.59;86.23
54194;BME280;40102;50.906;6.972;2022-10-23T10:40:50;100394.88;;;15.54;86.55
54194;BME280;40102;50.906;6.972;2022-10-23T10:49:40;100381.91;;;15.48;85.82
54194;BME280;40102;50.906;6.972;2022-10-23T10:57:41;100370.13;;;15.49;85.29
54194;BME280;40102;50.906;6.972;2022-10-23T11:00:27;100366.72;;;15.47;84.64
54194;BME280;40102;50.906;6.972;2022-10-23T11:03:01;100367.91;;;15.54;83.98
54194;BME280;40102;50.906;6.972;2022-10-23T11:05:34;100373.94;;;15.58;84.35
54194;BME280;40102;50.906;6.972;2022-10-23T11:13:42;100375.47;;;15.71;83.84
54194;BME280;40102;50.906;6.972;2022-10-23T11:16:18;100382.59;;;15.72;82.95
54194;BME280;40102;50.906;6.972;2022-10-23T11:21:48;100365.28;;;15.75;83.30
54194;BME280;40102;50.906;6.972;2022-10-23T11:24:39;100365.56;;;15.72;83.71
54194;BME280;40102;50.906;6.972;2022-10-23T11:33:27;100341.66;;;15.67;84.91
54194;BME280;40102;50.906;6.972;2022-10-23T11:38:34;100316.22;;;15.60;85.66
54194;BME280;40102;50.906;6.972;2022-10-23T11:41:24;100321.94;;;15.67;85.05
54194;BME280;40102;50.906;6.972;2022-10-23T11:43:54;100331.34;;;15.72;84.58
54194;BME280;40102;50.906;6.972;2022-10-23T11:48:53;100321.25;;;15.85;84.09
54194;BME280;40102;50.906;6.972;2022-10-23T11:51:28;100334.97;;;15.94;83.42
54194;BME280;40102;50.906;6.972;2022-10-23T11:54:23;100337.59;;;16.05;82.69
54194;BME280;40102;50.906;6.972;2022-10-23T11:59:28;100324.66;;;16.19;81.95
54194;BME280;40102;50.906;6.972;2022-10-23T12:02:00;100307.56;;;16.30;81.44
54194;BME280;40102;50.906;6.972;2022-10-23T12:04:37;100288.72;;;16.40;79.98
54194;BME280;40102;50.906;6.972;2022-10-23T12:07:15;100296.28;;;16.46;80.00
54194;BME280;40102;50.906;6.972;2022-10-23T12:09:51;100293.19;;;16.50;80.67
54194;BME280;40102;50.906;6.972;2022-10-23T12:12:31;100287.38;;;16.55;81.02
54194;BME280;40102;50.906;6.972;2022-10-23T12:17:37;100275.53;;;16.67;79.05
54194;BME280;40102;50.906;6.972;2022-10-23T12:20:34;100269.59;;;16.73;78.43
54194;BME280;40102;50.906;6.972;2022-10-23T12:23:15;100270.19;;;16.77;78.21
54194;BME280;40102;50.906;6.972;2022-10-23T12:29:18;100268.81;;;16.92;77.37
54194;BME280;40102;50.906;6.972;2022-10-23T12:34:34;100273.81;;;16.97;75.92
54194;BME280;40102;50.906;6.972;2022-10-23T12:39:36;100251.75;;;16.92;76.35
54194;BME280;40102;50.906;6.972;2022-10-23T12:42:08;100260.16;;;16.98;76.28
54194;BME280;40102;50.906;6.972;2022-10-23T12:44:36;100256.88;;;16.95;76.08
54194;BME280;40102;50.906;6.972;2022-10-23T12:47:02;100237.25;;;16.93;77.39
54194;BME280;40102;50.906;6.972;2022-10-23T12:49:30;100239.09;;;16.92;76.73
54194;BME280;40102;50.906;6.972;2022-10-23T12:52:03;100247.22;;;16.92;77.12
54194;BME280;40102;50.906;6.972;2022-10-23T12:54:38;100240.97;;;16.92;78.54
54194;BME280;40102;50.906;6.972;2022-10-23T12:59:54;100233.53;;;16.84;78.26
54194;BME280;40102;50.906;6.972;2022-10-23T13:02:25;100214.91;;;16.81;79.06
54194;BME280;40102;50.906;6.972;2022-10-23T13:04:53;100206.66;;;16.82;78.25
54194;BME280;40102;50.906;6.972;2022-10-23T13:07:22;100202.97;;;16.83;79.73
54194;BME280;40102;50.906;6.972;2022-10-23T13:09:50;100201.41;;;16.81;79.42
54194;BME280;40102;50.906;6.972;2022-10-23T13:15:19;100204.81;;;16.83;79.10
54194;BME280;40102;50.906;6.972;2022-10-23T13:17:45;100212.22;;;16.81;79.24
54194;BME280;40102;50.906;6.972;2022-10-23T13:22:48;100187.47;;;16.76;80.12
54194;BME280;40102;50.906;6.972;2022-10-23T13:25:34;100189.03;;;16.78;79.62
54194;BME280;40102;50.906;6.972;2022-10-23T13:33:46;100165.00;;;16.75;80.21
54194;BME280;40102;50.906;6.972;2022-10-23T13:38:40;100160.88;;;16.81;80.57
54194;BME280;40102;50.906;6.972;2022-10-23T13:41:12;100166.16;;;16.82;81.09
54194;BME280;40102;50.906;6.972;2022-10-23T13:43:39;100159.91;;;16.82;81.47
54194;BME280;40102;50.906;6.972;2022-10-23T13:46:05;100152.94;;;16.79;81.75
54194;BME280;40102;50.906;6.972;2022-10-23T13:48:30;100148.78;;;16.75;81.98
54194;BME280;40102;50.906;6.972;2022-10-23T13:51:19;100149.78;;;16.74;82.09
54194;BME280;40102;50.906;6.972;2022-10-23T13:53:45;100144.66;;;16.71;82.05
54194;BME280;40102;50.906;6.972;2022-10-23T13:56:12;100167.84;;;16.74;82.20
54194;BME280;40102;50.906;6.972;2022-10-23T13:58:38;100157.03;;;16.74;82.20
54194;BME280;40102;50.906;6.972;2022-10-23T14:01:03;100157.75;;;16.76;82.30
54194;BME280;40102;50.906;6.972;2022-10-23T14:03:29;100153.22;;;16.76;82.51
54194;BME280;40102;50.906;6.972;2022-10-23T14:05:54;100135.56;;;16.72;82.50
54194;BME280;40102;50.906;6.972;2022-10-23T14:08:19;100141.97;;;16.71;82.57
54194;BME280;40102;50.906;6.972;2022-10-23T14:10:45;100132.88;;;16.72;82.68
54194;BME280;40102;50.906;6.972;2022-10-23T14:13:10;100130.31;;;16.71;82.86
54194;BME280;40102;50.906;6.972;2022-10-23T14:15:36;100133.28;;;16.68;83.33
54194;BME280;40102;50.906;6.972;2022-10-23T14:18:01;100123.63;;;16.65;83.20
54194;BME280;40102;50.906;6.972;2022-10-23T14:20:27;100129.13;;;16.64;83.28
54194;BME280;40102;50.906;6.972;2022-10-23T14:22:56;100116.09;;;16.69;83.70
54194;BME280;40102;50.906;6.972;2022-10-23T14:25:21;100120.06;;;16.65;83.83
54194;BME280;40102;50.906;6.972;2022-10-23T14:27:47;100110.13;;;16.65;83.85
54194;BME280;40102;50.906;6.972;2022-10-23T14:30:13;100112.69;;;16.67;83.68
54194;BME280;40102;50.906;6.972;2022-10-23T14:32:38;100116.81;;;16.71;83.73
54194;BME280;40102;50.906;6.972;2022-10-23T14:35:04;100109.13;;;16.76;83.17
54194;BME280;40102;50.906;6.972;2022-10-23T14:37:30;100109.13;;;16.76;83.63
54194;BME280;40102;50.906;6.972;2022-10-23T14:39:55;100092.94;;;16.76;83.34
54194;BME280;40102;50.906;6.972;2022-10-23T14:42:21;100095.50;;;16.77;82.99
54194;BME280;40102;50.906;6.972;2022-10-23T14:44:48;100089.66;;;16.72;82.76
54194;BME280;40102;50.906;6.972;2022-10-23T14:47:14;100100.31;;;16.74;83.27
54194;BME280;40102;50.906;6.972;2022-10-23T14:49:39;100090.94;;;16.68;83.24
54194;BME280;40102;50.906;6.972;2022-10-23T14:52:05;100098.47;;;16.74;82.83
54194;BME280;40102;50.906;6.972;2022-10-23T14:54:31;100089.94;;;16.69;83.31
54194;BME280;40102;50.906;6.972;2022-10-23T14:56:58;100079.56;;;16.65;83.63